Asbury, Illinois
Current Conditions -  °F | °C
As of 5:15 AM on Saturday 20 Dec 2014 (Local Time) from KCUL Reporting Station
Overcast Overcast  
Wind Chill: 33°   Ceiling: 5500
Heat Index: 33°   Visibility: 10mi
Dew Point: 30°   Wind: 3mph
Humidity: 88%   Direction: 30°NNE
Pressure: 30.29"   Gusts: NA
Location:  37.8866°N, 88.266°W
Report Text: KCUL 201115Z AUTO 03003KT 10SM OVC055 01/M01 A3029 RMK AO2 T00081010
Loading
Personal Weather Stations






























Interactive Weather Map New forecast layout! Learn more

10-Day Weather Forecast

Advertisements
Track Severe Weather on mobile